Time;durP1;ratioP1;P1;durP2;ratioP2;P2;SDS_P1;SDS_P2;PMS_P1;PMS_P2;Temp;Humidity;BMP_temperature;BMP_pressure;BME280_temperature;BME280_humidity;BME280_pressure;Samples;Min_cycle;Max_cycle;Signal;HPM_P1;HPM_P2
2024/03/24 00:00:44;;;;;;;16.15;6.42;;;;;;;11.08;73.39;99102.65;1724898;83;21067;-77
2024/03/24 00:03:12;;;;;;;11.57;6.87;;;;;;;11.08;73.50;99095.80;1724534;83;21023;-75
2024/03/24 00:05:41;;;;;;;11.03;6.90;;;;;;;11.07;73.54;99093.59;1724671;83;21066;-76
2024/03/24 00:08:09;;;;;;;10.40;6.75;;;;;;;11.05;73.63;99096.23;1724886;82;21015;-77
2024/03/24 00:10:38;;;;;;;9.38;6.65;;;;;;;11.03;73.57;99085.50;1702411;83;21086;-74
2024/03/24 00:13:06;;;;;;;13.80;7.55;;;;;;;11.02;73.53;99079.72;1724669;83;21363;-74
2024/03/24 00:15:34;;;;;;;11.83;7.00;;;;;;;11.01;73.44;99076.67;1724646;83;21086;-76
2024/03/24 00:18:03;;;;;;;11.38;6.92;;;;;;;11.00;73.57;99066.78;1724744;83;21326;-77
2024/03/24 00:20:35;;;;;;;11.03;7.00;;;;;;;10.98;73.59;99063.97;1724628;83;21455;-75
2024/03/24 00:23:03;;;;;;;11.57;6.47;;;;;;;10.97;73.61;99069.16;1724727;83;21059;-76
2024/03/24 00:25:32;;;;;;;9.98;6.55;;;;;;;10.95;73.89;99058.42;1724563;82;21582;-76
2024/03/24 00:28:00;;;;;;;11.78;6.65;;;;;;;10.94;74.00;99066.88;1724626;83;21071;-77
2024/03/24 00:30:28;;;;;;;13.48;7.33;;;;;;;10.91;73.99;99060.49;1724591;83;21026;-77
2024/03/24 00:32:56;;;;;;;12.18;7.12;;;;;;;10.87;74.10;99058.75;1724604;83;21070;-75
2024/03/24 00:35:25;;;;;;;10.88;6.62;;;;;;;10.88;74.25;99047.26;1724745;83;21034;-76
2024/03/24 00:37:53;;;;;;;9.98;6.33;;;;;;;10.86;74.38;99052.97;1724665;83;21039;-76
2024/03/24 00:40:21;;;;;;;10.95;7.00;;;;;;;10.85;74.46;99053.20;1724594;82;21098;-76
2024/03/24 00:42:50;;;;;;;9.50;6.72;;;;;;;10.83;74.53;99056.17;1735433;82;21074;-75
2024/03/24 00:45:18;;;;;;;13.60;6.83;;;;;;;10.80;74.66;99053.89;1724632;82;21086;-75
2024/03/24 00:47:49;;;;;;;10.68;6.87;;;;;;;10.79;74.93;99046.75;1724527;83;21090;-78
2024/03/24 00:50:18;;;;;;;10.75;7.20;;;;;;;10.78;75.18;99054.66;1724730;82;21490;-77
2024/03/24 00:52:46;;;;;;;10.90;7.28;;;;;;;10.78;75.39;99045.08;1724677;83;21086;-77
2024/03/24 00:55:14;;;;;;;10.08;6.80;;;;;;;10.76;75.49;99046.67;1724757;83;21026;-75
2024/03/24 00:57:42;;;;;;;10.93;6.72;;;;;;;10.74;75.58;99043.87;1724715;83;21458;-77
2024/03/24 01:00:13;;;;;;;11.85;7.20;;;;;;;10.70;75.69;99037.18;1730204;82;21193;-75
2024/03/24 01:02:42;;;;;;;12.07;7.70;;;;;;;10.67;75.83;99037.11;1724560;83;21486;-75
2024/03/24 01:05:10;;;;;;;11.90;7.47;;;;;;;10.66;76.00;99035.97;1702686;83;21074;-75
2024/03/24 01:07:39;;;;;;;12.53;7.55;;;;;;;10.65;76.21;99027.45;1724799;83;21058;-75
2024/03/24 01:10:08;;;;;;;10.63;7.22;;;;;;;10.62;76.38;99031.49;1724809;83;21031;-76
2024/03/24 01:12:36;;;;;;;9.70;6.75;;;;;;;10.61;76.61;99031.72;1724724;83;21078;-76
2024/03/24 01:15:06;;;;;;;13.45;8.20;;;;;;;10.59;76.75;99033.33;1724773;83;21027;-76
2024/03/24 01:17:35;;;;;;;11.63;7.20;;;;;;;10.56;76.95;99027.47;1724634;82;21568;-77
2024/03/24 01:20:04;;;;;;;11.70;7.17;;;;;;;10.53;77.11;99028.77;1725068;83;21051;-77
2024/03/24 01:22:33;;;;;;;11.63;7.72;;;;;;;10.51;77.39;99033.64;1724724;83;21506;-78
2024/03/24 01:25:02;;;;;;;14.18;7.80;;;;;;;10.48;77.56;99034.95;1724641;82;21328;-75
2024/03/24 01:27:30;;;;;;;14.47;8.30;;;;;;;10.44;77.80;99033.73;1724928;83;21122;-76
2024/03/24 01:29:58;;;;;;;12.70;7.50;;;;;;;10.44;77.90;99024.68;1724815;83;21074;-75
2024/03/24 01:32:27;;;;;;;13.65;7.45;;;;;;;10.42;78.01;99030.92;1724704;83;21129;-75
2024/03/24 01:34:55;;;;;;;12.13;8.08;;;;;;;10.40;78.08;99027.55;1724652;83;21041;-76
2024/03/24 01:37:24;;;;;;;10.43;7.70;;;;;;;10.39;78.26;99021.77;1724956;83;21086;-77
2024/03/24 01:39:52;;;;;;;11.10;7.67;;;;;;;10.39;78.33;99023.14;1725023;83;21090;-77
2024/03/24 01:42:20;;;;;;;11.38;7.37;;;;;;;10.36;78.44;99020.33;1724581;83;21084;-77
2024/03/24 01:44:49;;;;;;;11.63;7.58;;;;;;;10.33;78.55;99019.95;1724754;83;21469;-77
2024/03/24 01:47:17;;;;;;;13.98;7.92;;;;;;;10.31;78.64;99010.59;1724841;83;21082;-78
2024/03/24 01:49:45;;;;;;;13.95;7.95;;;;;;;10.29;78.66;99003.15;1724824;83;21032;-77
2024/03/24 01:52:14;;;;;;;15.05;7.60;;;;;;;10.29;78.83;99003.15;1724742;83;21058;-78
2024/03/24 01:54:42;;;;;;;14.13;7.87;;;;;;;10.30;78.83;99002.62;1724625;83;21034;-78
2024/03/24 01:57:11;;;;;;;13.45;7.20;;;;;;;10.30;78.82;98998.52;1724729;83;21197;-77
2024/03/24 01:59:40;;;;;;;14.70;8.20;;;;;;;10.29;78.89;99005.05;1724779;82;21098;-77
2024/03/24 02:02:08;;;;;;;13.75;7.78;;;;;;;10.24;78.79;99015.32;1724662;83;21094;-78
2024/03/24 02:04:48;;;;;;;12.85;7.83;;;;;;;10.21;78.91;98997.98;1724783;83;21110;-76
2024/03/24 02:07:16;;;;;;;12.40;7.97;;;;;;;10.18;79.00;98997.05;1724875;83;21122;-78
2024/03/24 02:09:45;;;;;;;12.70;7.28;;;;;;;10.17;79.09;98998.11;1702517;83;21022;-77
2024/03/24 02:12:13;;;;;;;11.95;7.97;;;;;;;10.17;79.21;98998.11;1724717;83;21204;-77
2024/03/24 02:14:43;;;;;;;12.13;7.97;;;;;;;10.16;79.16;99008.75;1724623;82;21071;-78
2024/03/24 02:17:11;;;;;;;12.33;7.72;;;;;;;10.14;79.18;99012.25;1724644;83;21051;-78
2024/03/24 02:19:40;;;;;;;11.03;6.87;;;;;;;10.12;79.18;99002.07;1724808;83;21043;-78
2024/03/24 02:22:08;;;;;;;13.40;7.83;;;;;;;10.10;79.30;98998.73;1724919;83;21059;-77
2024/03/24 02:24:36;;;;;;;13.08;7.70;;;;;;;10.08;79.36;98996.75;1724773;83;21031;-77
2024/03/24 02:27:05;;;;;;;11.05;7.45;;;;;;;10.07;79.24;98998.66;1724833;82;21091;-77
2024/03/24 02:29:33;;;;;;;12.43;7.60;;;;;;;10.01;79.31;99002.30;1724757;83;21076;-77
2024/03/24 02:32:02;;;;;;;11.73;7.58;;;;;;;9.98;79.27;98988.24;1724808;83;21055;-76
2024/03/24 02:34:30;;;;;;;13.85;7.87;;;;;;;9.95;79.29;98988.70;1724761;82;21042;-78
2024/03/24 02:36:58;;;;;;;11.68;7.20;;;;;;;9.92;79.42;98981.78;1724760;83;20994;-78
2024/03/24 02:39:27;;;;;;;11.65;7.78;;;;;;;9.92;79.51;98982.31;1724674;83;21070;-77
2024/03/24 02:41:55;;;;;;;13.13;7.80;;;;;;;9.91;79.44;98980.64;1724707;83;21178;-77
2024/03/24 02:44:23;;;;;;;12.18;7.87;;;;;;;9.89;79.40;98981.41;1724868;83;21023;-77
2024/03/24 02:46:52;;;;;;;14.20;7.80;;;;;;;9.85;79.36;98982.39;1724685;83;21078;-78
2024/03/24 02:49:20;;;;;;;13.98;8.00;;;;;;;9.82;79.40;98978.75;1724739;83;21106;-77
2024/03/24 02:51:48;;;;;;;12.63;7.78;;;;;;;9.81;79.60;98983.38;1724704;83;21015;-77
2024/03/24 02:54:17;;;;;;;13.43;8.05;;;;;;;9.81;79.74;98982.55;1724655;83;21189;-77
2024/03/24 02:56:45;;;;;;;14.45;8.05;;;;;;;9.80;79.72;98978.98;1724743;83;21074;-78
2024/03/24 02:59:13;;;;;;;11.80;7.47;;;;;;;9.79;79.67;98970.47;1724750;83;21062;-77
2024/03/24 03:01:43;;;;;;;12.43;7.60;;;;;;;9.76;79.74;98975.02;1724766;83;21046;-77
2024/03/24 03:04:13;;;;;;;13.45;7.95;;;;;;;9.75;79.74;98980.69;1724678;83;21094;-78
2024/03/24 03:06:41;;;;;;;12.18;8.38;;;;;;;9.72;79.59;98968.30;1724791;83;21021;-78
2024/03/24 03:09:10;;;;;;;13.68;8.13;;;;;;;9.70;79.59;98980.53;1724822;83;21059;-76
2024/03/24 03:11:38;;;;;;;16.42;8.80;;;;;;;9.65;79.23;98974.38;1724671;83;21423;-78
2024/03/24 03:14:06;;;;;;;12.68;8.40;;;;;;;9.60;79.37;98981.59;1724611;83;21221;-78
2024/03/24 03:16:35;;;;;;;11.93;8.00;;;;;;;9.59;79.46;98973.91;1724651;83;21038;-77
2024/03/24 03:19:04;;;;;;;15.95;8.73;;;;;;;9.58;79.51;98980.45;1724681;83;21066;-78
2024/03/24 03:21:32;;;;;;;14.18;8.78;;;;;;;9.57;79.46;98977.41;1724835;82;21137;-78
2024/03/24 03:24:01;;;;;;;12.55;8.30;;;;;;;9.54;79.46;98977.86;1724885;83;21082;-77
2024/03/24 03:26:29;;;;;;;14.15;8.33;;;;;;;9.51;79.42;98972.31;1724599;82;21012;-77
2024/03/24 03:28:57;;;;;;;14.45;8.10;;;;;;;9.49;79.52;98969.50;1724625;83;21110;-77
2024/03/24 03:31:26;;;;;;;14.00;8.75;;;;;;;9.47;79.51;98970.25;1724827;83;21058;-78
2024/03/24 03:33:55;;;;;;;13.53;8.48;;;;;;;9.44;79.49;98967.97;1724663;83;21015;-78
2024/03/24 03:36:23;;;;;;;14.80;8.03;;;;;;;9.40;79.50;98965.38;1724629;83;21034;-78
2024/03/24 03:38:51;;;;;;;13.62;8.93;;;;;;;9.39;79.63;98971.91;1724543;81;21110;-77
2024/03/24 03:41:20;;;;;;;13.43;8.05;;;;;;;9.37;79.75;98971.30;1702305;83;21074;-78
2024/03/24 03:43:48;;;;;;;13.68;9.15;;;;;;;9.34;79.71;98971.75;1724647;83;21058;-77
2024/03/24 03:46:16;;;;;;;20.05;8.48;;;;;;;9.30;79.64;98970.00;1724660;83;21583;-77
2024/03/24 03:48:45;;;;;;;15.18;8.40;;;;;;;9.30;79.74;98966.43;1724580;81;21122;-78
2024/03/24 03:51:29;;;;;;;13.58;9.18;;;;;;;9.28;79.75;98967.19;1724588;83;21125;-78
2024/03/24 03:53:49;;;;;;;14.83;8.78;;;;;;;9.27;79.73;98967.72;1723602;82;21035;-77
2024/03/24 03:56:18;;;;;;;15.55;8.13;;;;;;;9.25;79.69;98967.10;1702394;83;21097;-77
2024/03/24 03:58:46;;;;;;;13.68;8.65;;;;;;;9.25;79.75;98960.80;1724660;83;21082;-78
2024/03/24 04:01:14;;;;;;;17.17;9.73;;;;;;;9.21;79.73;98969.45;1724730;83;21138;-78
2024/03/24 04:03:43;;;;;;;16.70;9.18;;;;;;;9.18;79.58;98963.06;1702548;83;21047;-76
2024/03/24 04:06:12;;;;;;;16.37;9.95;;;;;;;9.15;79.65;98962.15;1724924;83;21042;-76
2024/03/24 04:08:40;;;;;;;18.32;8.93;;;;;;;9.15;79.76;98968.14;1724808;83;21019;-76
2024/03/24 04:11:08;;;;;;;13.75;9.30;;;;;;;9.13;79.76;98962.90;1724648;83;21035;-76
2024/03/24 04:13:37;;;;;;;18.95;9.43;;;;;;;9.13;79.87;98971.09;1724537;83;21551;-75
2024/03/24 04:16:06;;;;;;;15.88;9.43;;;;;;;9.13;79.89;98965.63;1724633;82;21082;-76
2024/03/24 04:18:34;;;;;;;14.15;8.85;;;;;;;9.10;79.79;98961.11;1724543;83;21518;-76
2024/03/24 04:21:03;;;;;;;17.30;9.95;;;;;;;9.07;79.74;98961.03;1724527;83;21055;-78
2024/03/24 04:23:31;;;;;;;18.62;9.55;;;;;;;9.05;79.74;98968.61;1724593;83;21121;-77
2024/03/24 04:26:00;;;;;;;18.25;10.28;;;;;;;8.98;79.61;98964.27;1724771;83;21149;-76
2024/03/24 04:28:29;;;;;;;16.55;9.48;;;;;;;8.95;79.93;98966.91;1724762;83;21125;-77
2024/03/24 04:30:58;;;;;;;16.55;10.05;;;;;;;8.94;80.16;98967.13;1724753;83;21070;-75
2024/03/24 04:33:26;;;;;;;16.05;9.63;;;;;;;8.95;80.27;98968.80;1724864;83;21126;-77
2024/03/24 04:35:55;;;;;;;16.62;9.98;;;;;;;8.95;80.24;98963.34;1724675;83;21454;-77
2024/03/24 04:38:23;;;;;;;16.00;9.98;;;;;;;8.92;80.14;98966.52;1724646;82;21050;-77
2024/03/24 04:40:51;;;;;;;18.02;9.90;;;;;;;8.90;80.29;98970.84;1724638;83;21083;-77
2024/03/24 04:43:20;;;;;;;17.62;10.00;;;;;;;8.88;80.32;98965.59;1702811;83;21019;-77
2024/03/24 04:45:48;;;;;;;15.35;9.53;;;;;;;8.87;80.38;98960.36;1702451;83;21015;-77
2024/03/24 04:48:17;;;;;;;16.62;9.70;;;;;;;8.87;80.37;98965.29;1724634;83;21564;-77
2024/03/24 04:50:46;;;;;;;14.73;9.90;;;;;;;8.86;80.32;98964.15;1724635;82;21073;-76
2024/03/24 04:53:15;;;;;;;16.67;10.05;;;;;;;8.82;80.35;98957.45;1702686;83;21133;-76
2024/03/24 04:55:44;;;;;;;15.65;9.65;;;;;;;8.79;80.45;98960.09;1724791;83;21451;-75
2024/03/24 04:58:13;;;;;;;21.10;10.30;;;;;;;8.76;80.47;98953.72;1724673;83;21070;-76
2024/03/24 05:00:41;;;;;;;23.00;10.60;;;;;;;8.73;80.57;98958.25;1724634;83;21019;-76
2024/03/24 05:03:09;;;;;;;17.40;10.25;;;;;;;8.73;80.73;98957.42;1724654;83;21113;-75
2024/03/24 05:05:39;;;;;;;17.42;10.28;;;;;;;8.73;80.73;98956.05;1724742;82;21034;-77
2024/03/24 05:08:07;;;;;;;16.77;10.13;;;;;;;8.71;80.65;98954.91;1702554;83;21169;-77
2024/03/24 05:10:39;;;;;;;17.05;10.63;;;;;;;8.71;80.75;98954.91;1724714;83;21038;-77
2024/03/24 05:13:09;;;;;;;18.48;10.30;;;;;;;8.71;80.78;98956.80;1724686;83;21042;-78
2024/03/24 05:15:37;;;;;;;18.42;10.75;;;;;;;8.70;80.76;98953.77;1724676;82;21086;-78
2024/03/24 05:18:08;;;;;;;17.85;10.82;;;;;;;8.67;80.58;98954.20;1724759;83;21046;-77
2024/03/24 05:20:36;;;;;;;28.05;11.30;;;;;;;8.66;80.72;98959.36;1724687;83;21066;-76
2024/03/24 05:23:06;;;;;;;16.80;10.00;;;;;;;8.66;80.82;98960.72;1724993;83;21026;-76
2024/03/24 05:25:39;;;;;;;17.70;9.78;;;;;;;8.66;80.91;98957.47;1724758;82;21467;-76
2024/03/24 05:28:08;;;;;;;18.45;9.90;;;;;;;8.67;80.76;98952.84;1724930;83;21038;-76
2024/03/24 05:30:38;;;;;;;17.50;10.05;;;;;;;8.64;80.79;98958.75;1724573;82;21462;-77
2024/03/24 05:33:06;;;;;;;22.70;11.18;;;;;;;8.60;80.71;98959.71;1724757;83;21038;-77
2024/03/24 05:35:35;;;;;;;18.73;10.13;;;;;;;8.60;80.91;98964.34;1724648;83;21552;-76
2024/03/24 05:38:04;;;;;;;19.35;10.58;;;;;;;8.59;80.89;98951.22;1724780;83;21050;-78
2024/03/24 05:40:32;;;;;;;17.52;10.65;;;;;;;8.58;80.95;98947.65;1724694;83;21074;-77
2024/03/24 05:43:00;;;;;;;17.17;10.65;;;;;;;8.55;80.96;98955.44;1724837;83;21188;-77
2024/03/24 05:45:30;;;;;;;19.80;11.08;;;;;;;8.53;81.00;98955.66;1724862;83;21074;-76
2024/03/24 05:47:58;;;;;;;17.52;9.55;;;;;;;8.52;81.03;98953.16;1702472;83;21039;-77
2024/03/24 05:50:27;;;;;;;16.95;10.28;;;;;;;8.52;81.11;98954.52;1724627;83;21521;-76
2024/03/24 05:52:55;;;;;;;18.20;10.18;;;;;;;8.49;81.06;98953.06;1724571;83;21122;-77
2024/03/24 05:55:24;;;;;;;17.35;10.48;;;;;;;8.46;81.05;98953.50;1724812;83;21078;-77
2024/03/24 05:57:52;;;;;;;17.87;10.50;;;;;;;8.45;81.24;98949.10;1724790;83;21133;-74
2024/03/24 06:00:20;;;;;;;24.85;11.38;;;;;;;8.47;81.17;98951.09;1704311;83;21082;-74
2024/03/24 06:02:50;;;;;;;16.77;10.35;;;;;;;8.47;81.13;98944.79;1730081;81;21482;-76
2024/03/24 06:05:19;;;;;;;19.55;10.60;;;;;;;8.48;81.16;98943.73;1724741;82;21051;-76
2024/03/24 06:07:47;;;;;;;16.55;10.05;;;;;;;8.46;80.97;98941.75;1724717;81;21530;-76
2024/03/24 06:10:16;;;;;;;19.40;10.50;;;;;;;8.46;80.96;98948.58;1680178;83;21094;-76
2024/03/24 06:12:45;;;;;;;19.17;11.12;;;;;;;8.45;80.86;98946.38;1724869;83;21113;-76
2024/03/24 06:15:13;;;;;;;16.20;10.18;;;;;;;8.41;80.73;98935.55;1724729;83;21541;-76
2024/03/24 06:17:42;;;;;;;17.98;11.80;;;;;;;8.38;80.90;98935.16;1724890;83;21042;-76
2024/03/24 06:20:12;;;;;;;17.70;10.53;;;;;;;8.39;81.01;98930.84;1724612;83;21070;-76
2024/03/24 06:22:41;;;;;;;18.75;10.70;;;;;;;8.41;80.94;98935.55;1724609;83;21073;-75
2024/03/24 06:25:09;;;;;;;19.92;11.45;;;;;;;8.40;80.89;98939.34;1724964;83;21074;-76
2024/03/24 06:27:39;;;;;;;17.92;10.98;;;;;;;8.39;80.81;98951.31;1724859;83;21054;-77
2024/03/24 06:30:08;;;;;;;19.17;10.75;;;;;;;8.38;80.93;98947.44;1724845;83;21047;-77
2024/03/24 06:32:37;;;;;;;18.67;10.68;;;;;;;8.38;80.90;98950.16;1724639;83;21050;-77
2024/03/24 06:35:10;;;;;;;20.02;10.65;;;;;;;8.41;81.03;98950.56;1724693;82;21046;-77
2024/03/24 06:37:38;;;;;;;15.95;10.50;;;;;;;8.43;81.06;98950.34;1725044;83;21070;-76
2024/03/24 06:40:08;;;;;;;18.82;11.35;;;;;;;8.45;80.91;98951.83;1702623;83;21189;-76
2024/03/24 06:42:59;;;;;;;20.43;11.40;;;;;;;8.49;80.86;98946.24;1725100;83;21070;-76
2024/03/24 06:45:15;;;;;;;21.93;11.50;;;;;;;8.48;80.72;98941.84;1722728;83;21147;-76
2024/03/24 06:47:43;;;;;;;20.25;11.55;;;;;;;8.48;80.57;98944.57;1724954;82;21059;-76
2024/03/24 06:50:12;;;;;;;19.02;11.45;;;;;;;8.49;80.68;98943.52;1702603;83;21491;-77
2024/03/24 06:52:40;;;;;;;23.42;11.43;;;;;;;8.53;80.49;98937.08;1724789;83;21050;-77
2024/03/24 06:55:08;;;;;;;16.75;11.03;;;;;;;8.55;80.45;98940.43;1724876;83;21027;-76
2024/03/24 06:57:37;;;;;;;18.92;11.03;;;;;;;8.54;80.22;98939.59;1724724;83;21085;-77
2024/03/24 07:00:07;;;;;;;16.37;10.78;;;;;;;8.53;80.11;98940.66;1724623;83;21079;-77
2024/03/24 07:02:36;;;;;;;19.60;11.12;;;;;;;8.53;80.11;98928.89;1724785;83;21023;-77
2024/03/24 07:05:05;;;;;;;19.48;11.30;;;;;;;8.54;80.25;98934.13;1702701;83;21051;-76
2024/03/24 07:07:34;;;;;;;24.20;12.03;;;;;;;8.56;80.21;98942.94;1724849;83;21055;-76
2024/03/24 07:10:06;;;;;;;20.62;11.08;;;;;;;8.60;80.20;98948.80;1724657;83;21514;-76
2024/03/24 07:12:35;;;;;;;19.50;12.07;;;;;;;8.62;80.10;98939.02;1724749;83;21094;-77
2024/03/24 07:15:04;;;;;;;18.50;11.20;;;;;;;8.63;79.95;98947.52;1725046;83;21054;-77
2024/03/24 07:17:33;;;;;;;23.85;11.50;;;;;;;8.63;79.95;98942.05;1724774;83;21046;-76
2024/03/24 07:20:01;;;;;;;18.50;11.55;;;;;;;8.64;79.85;98939.63;1702423;83;21505;-77
2024/03/24 07:22:30;;;;;;;20.05;10.60;;;;;;;8.63;79.87;98942.05;1702296;83;21062;-76
2024/03/24 07:24:58;;;;;;;20.95;11.65;;;;;;;8.62;79.82;98931.66;1724756;83;21063;-77
2024/03/24 07:27:26;;;;;;;19.67;11.25;;;;;;;8.64;79.77;98927.34;1724780;82;21125;-78
2024/03/24 07:29:55;;;;;;;19.75;11.28;;;;;;;8.64;79.81;98925.45;1724851;82;21030;-78
2024/03/24 07:32:23;;;;;;;31.17;11.83;;;;;;;8.65;79.83;98920.83;1724870;83;21049;-78
2024/03/24 07:34:52;;;;;;;20.50;11.05;;;;;;;8.66;79.81;98923.87;1724584;83;21109;-78
2024/03/24 07:37:21;;;;;;;19.32;11.25;;;;;;;8.68;79.86;98912.20;1724724;83;21102;-78
2024/03/24 07:39:50;;;;;;;20.88;10.95;;;;;;;8.71;79.78;98926.23;1724632;83;21038;-77
2024/03/24 07:42:18;;;;;;;21.30;12.07;;;;;;;8.73;79.72;98911.00;1703147;83;21567;-78
2024/03/24 07:44:47;;;;;;;21.93;11.88;;;;;;;8.78;79.86;98915.27;1724628;83;21066;-78
2024/03/24 07:47:15;;;;;;;22.25;11.95;;;;;;;8.79;80.14;98915.05;1724707;83;20999;-77
2024/03/24 07:49:44;;;;;;;18.65;12.03;;;;;;;8.77;80.34;98908.12;1724658;83;21019;-78
2024/03/24 07:52:12;;;;;;;22.95;12.60;;;;;;;8.78;80.82;98905.18;1724719;83;21038;-77
2024/03/24 07:54:41;;;;;;;20.88;11.95;;;;;;;8.82;81.24;98901.47;1724585;82;21035;-76
2024/03/24 07:57:09;;;;;;;20.35;12.53;;;;;;;8.88;81.74;98897.31;1724520;83;21003;-77
2024/03/24 07:59:38;;;;;;;19.85;11.68;;;;;;;8.94;82.15;98898.84;1724681;83;21575;-77
2024/03/24 08:02:08;;;;;;;20.45;12.37;;;;;;;9.00;82.58;98897.42;1724560;83;21054;-77
2024/03/24 08:04:37;;;;;;;19.50;11.90;;;;;;;9.08;83.03;98896.30;1724615;83;21122;-76
2024/03/24 08:07:05;;;;;;;19.05;11.15;;;;;;;9.11;83.08;98885.78;1724736;83;21498;-77
2024/03/24 08:09:34;;;;;;;19.32;11.57;;;;;;;9.16;83.29;98873.65;1724971;83;21024;-76
2024/03/24 08:12:03;;;;;;;18.95;12.13;;;;;;;9.18;83.15;98870.16;1725527;81;21066;-77
2024/03/24 08:14:32;;;;;;;18.15;10.78;;;;;;;9.20;83.36;98874.03;1724656;83;21133;-76
2024/03/24 08:17:00;;;;;;;20.32;11.88;;;;;;;9.19;83.50;98874.56;1724629;83;21058;-77
2024/03/24 08:19:28;;;;;;;18.05;10.98;;;;;;;9.21;83.53;98864.24;1702789;83;21126;-77
2024/03/24 08:21:57;;;;;;;19.00;12.20;;;;;;;9.24;83.49;98867.58;1724668;83;21085;-77
2024/03/24 08:24:26;;;;;;;19.10;12.35;;;;;;;9.25;83.32;98863.25;1724790;82;21482;-77
2024/03/24 08:26:55;;;;;;;20.43;11.80;;;;;;;9.25;83.28;98859.69;1702671;83;21058;-76
2024/03/24 08:29:24;;;;;;;20.10;11.83;;;;;;;9.23;82.93;98861.81;1702858;83;21082;-77
2024/03/24 08:31:53;;;;;;;19.98;11.80;;;;;;;9.21;83.40;98846.48;1724981;82;21494;-78
2024/03/24 08:34:21;;;;;;;18.73;11.57;;;;;;;9.23;83.85;98841.32;1724619;83;21042;-76
2024/03/24 08:36:50;;;;;;;18.87;11.30;;;;;;;9.27;84.17;98837.06;1724786;83;21031;-76
2024/03/24 08:39:19;;;;;;;20.17;12.05;;;;;;;9.32;84.59;98829.86;1702522;83;21102;-77
2024/03/24 08:41:47;;;;;;;17.50;11.10;;;;;;;9.36;84.78;98836.53;1724601;83;21303;-77
2024/03/24 08:44:16;;;;;;;18.92;11.90;;;;;;;9.39;84.89;98833.34;1702430;83;21019;-76
2024/03/24 08:46:44;;;;;;;19.55;11.48;;;;;;;9.38;84.92;98830.31;1702767;83;21074;-76
2024/03/24 08:49:13;;;;;;;20.77;11.95;;;;;;;9.38;85.23;98828.11;1702935;83;21042;-76
2024/03/24 08:51:42;;;;;;;20.00;12.20;;;;;;;9.40;85.54;98853.31;1702687;83;21062;-77
2024/03/24 08:54:10;;;;;;;18.02;11.55;;;;;;;9.41;85.78;98859.92;1724657;83;21094;-77
2024/03/24 08:56:39;;;;;;;19.87;12.37;;;;;;;9.39;85.32;98855.74;1724616;83;21038;-76
2024/03/24 08:59:07;;;;;;;20.75;12.53;;;;;;;9.35;85.21;98856.73;1724574;83;21520;-77
2024/03/24 09:01:36;;;;;;;21.25;12.53;;;;;;;9.34;85.32;98856.42;1679160;83;21471;-78
2024/03/24 09:04:06;;;;;;;20.15;11.73;;;;;;;9.34;85.49;98841.39;1724571;82;21141;-77
2024/03/24 09:06:35;;;;;;;22.45;12.95;;;;;;;9.34;85.55;98847.39;1724533;83;21165;-77
2024/03/24 09:09:04;;;;;;;18.87;12.28;;;;;;;9.35;85.87;98851.80;1724772;83;21047;-78
2024/03/24 09:11:32;;;;;;;18.17;11.60;;;;;;;9.34;85.92;98842.77;1724661;83;21074;-78
2024/03/24 09:14:01;;;;;;;20.23;11.75;;;;;;;9.40;86.13;98838.28;1724773;83;21124;-77
2024/03/24 09:16:30;;;;;;;18.42;10.95;;;;;;;9.42;86.34;98833.42;1724844;83;21086;-75
2024/03/24 09:19:00;;;;;;;18.82;11.85;;;;;;;9.42;86.29;98826.05;1694087;83;21065;-76
2024/03/24 09:21:29;;;;;;;20.30;12.00;;;;;;;9.42;86.20;98816.48;1692576;83;21055;-78
2024/03/24 09:23:58;;;;;;;20.57;12.85;;;;;;;9.42;86.47;98802.82;1724381;83;21082;-76
2024/03/24 09:26:26;;;;;;;19.30;10.95;;;;;;;9.46;87.01;98803.20;1702275;83;21054;-75
2024/03/24 09:28:55;;;;;;;20.30;11.35;;;;;;;9.47;86.83;98813.06;1731391;81;21546;-77
2024/03/24 09:31:23;;;;;;;18.12;11.22;;;;;;;9.46;86.70;98828.63;1728224;82;21088;-78
2024/03/24 09:33:54;;;;;;;19.87;11.08;;;;;;;9.47;86.55;98822.63;1728253;81;21107;-77
2024/03/24 09:36:22;;;;;;;22.82;11.83;;;;;;;9.44;85.97;98814.89;1694666;83;21472;-76
2024/03/24 09:38:51;;;;;;;17.00;11.20;;;;;;;9.44;85.86;98821.72;1695497;85;21034;-75
2024/03/24 09:41:27;;;;;;;20.05;11.35;;;;;;;9.44;85.63;98807.52;1651751;85;21046;-79
2024/03/24 09:43:55;;;;;;;18.75;11.43;;;;;;;9.45;85.91;98832.96;1695555;85;21121;-78
2024/03/24 09:46:24;;;;;;;19.17;11.55;;;;;;;9.47;86.18;98826.73;1695381;83;21066;-78
2024/03/24 09:48:54;;;;;;;21.20;11.80;;;;;;;9.51;86.16;98817.01;1695243;83;21073;-78
2024/03/24 09:51:23;;;;;;;18.95;11.48;;;;;;;9.54;86.31;98811.92;1695289;85;21073;-78
2024/03/24 09:53:51;;;;;;;18.70;10.93;;;;;;;9.57;86.56;98816.09;1710802;83;21126;-77
2024/03/24 09:56:20;;;;;;;19.70;11.38;;;;;;;9.59;86.57;98833.09;1723001;83;21038;-77
2024/03/24 09:58:49;;;;;;;21.10;12.35;;;;;;;9.61;86.53;98836.97;1722994;83;21019;-77
2024/03/24 10:01:17;;;;;;;20.65;10.98;;;;;;;9.65;86.47;98823.14;1723041;83;21098;-78
2024/03/24 10:03:46;;;;;;;19.15;11.60;;;;;;;9.67;86.25;98811.44;1722941;83;21062;-76
2024/03/24 10:06:14;;;;;;;19.17;11.00;;;;;;;9.68;86.01;98814.48;1723055;83;21056;-77
2024/03/24 10:08:44;;;;;;;18.98;11.43;;;;;;;9.68;85.85;98808.48;1723040;83;21469;-78
2024/03/24 10:11:31;;;;;;;18.05;11.50;;;;;;;9.71;86.13;98814.84;1723172;83;21041;-79
2024/03/24 10:14:02;;;;;;;17.85;11.28;;;;;;;9.77;86.29;98833.64;1720405;83;21150;-79
2024/03/24 10:16:31;;;;;;;16.02;10.65;;;;;;;9.81;86.22;98832.94;1723023;83;21150;-78
2024/03/24 10:19:11;;;;;;;17.20;10.63;;;;;;;9.83;86.02;98834.91;1640293;87;21106;-77
2024/03/24 10:21:42;;;;;;;20.70;11.57;;;;;;;9.87;85.80;98842.13;1640307;87;21102;-78
2024/03/24 10:24:12;;;;;;;19.20;10.82;;;;;;;9.88;85.92;98830.65;1619255;87;21512;-77
2024/03/24 10:26:40;;;;;;;17.90;10.80;;;;;;;9.88;85.91;98836.95;1618778;87;21130;-78
2024/03/24 10:29:09;;;;;;;17.10;11.00;;;;;;;9.89;85.96;98836.42;1591807;88;21128;-76
2024/03/24 10:31:37;;;;;;;18.85;10.68;;;;;;;9.87;85.32;98838.02;1629745;88;21151;-78
2024/03/24 10:34:06;;;;;;;16.70;10.40;;;;;;;9.87;85.16;98833.08;1591796;88;21044;-76
2024/03/24 10:36:38;;;;;;;16.93;10.45;;;;;;;9.83;84.84;98826.70;1657248;83;21067;-76
2024/03/24 10:39:07;;;;;;;17.82;11.10;;;;;;;9.83;85.02;98823.97;1712932;82;21055;-77
2024/03/24 10:41:37;;;;;;;16.85;10.60;;;;;;;9.82;85.09;98813.27;1712908;84;21123;-76
2024/03/24 10:44:08;;;;;;;18.48;10.70;;;;;;;9.85;85.58;98811.43;1712872;82;21107;-76
2024/03/24 10:46:37;;;;;;;19.40;10.82;;;;;;;9.89;85.63;98814.00;1692863;84;21115;-79
2024/03/24 10:49:06;;;;;;;19.17;10.48;;;;;;;9.93;85.60;98820.68;1713118;82;21094;-78
2024/03/24 10:51:35;;;;;;;19.73;10.88;;;;;;;9.97;85.59;98816.41;1713111;82;21111;-79
2024/03/24 10:54:05;;;;;;;17.92;10.65;;;;;;;10.02;85.52;98824.75;1693004;84;21032;-77
2024/03/24 10:56:34;;;;;;;19.75;11.90;;;;;;;10.07;85.44;98824.89;1693270;84;21044;-78
2024/03/24 10:59:07;;;;;;;17.52;10.45;;;;;;;10.10;85.34;98818.11;1713099;84;21020;-78
2024/03/24 11:01:37;;;;;;;18.87;11.20;;;;;;;10.10;84.92;98816.75;1712968;82;21087;-78
2024/03/24 11:04:06;;;;;;;19.37;11.25;;;;;;;10.08;84.73;98816.98;1712958;82;21044;-78
2024/03/24 11:06:36;;;;;;;17.70;10.95;;;;;;;10.09;84.61;98820.02;1713154;82;21031;-77
2024/03/24 11:09:05;;;;;;;18.35;11.03;;;;;;;10.08;84.56;98801.09;1713247;84;21024;-77
2024/03/24 11:11:34;;;;;;;17.60;10.68;;;;;;;10.08;84.49;98803.84;1692996;84;21024;-80
2024/03/24 11:14:03;;;;;;;16.40;11.05;;;;;;;10.05;84.44;98805.13;1713174;82;21071;-76
2024/03/24 11:16:32;;;;;;;15.80;10.98;;;;;;;10.09;84.74;98798.66;1712882;82;21047;-77
2024/03/24 11:19:10;;;;;;;19.67;11.15;;;;;;;10.11;84.61;98802.00;1693068;83;21015;-78
2024/03/24 11:21:40;;;;;;;16.60;10.85;;;;;;;10.12;84.64;98804.50;1712793;84;21063;-77
2024/03/24 11:24:26;;;;;;;18.55;10.82;;;;;;;10.15;84.49;98803.20;1693362;84;21036;-79
2024/03/24 11:26:57;;;;;;;18.75;10.45;;;;;;;10.17;84.46;98799.69;1714059;83;21122;-76
2024/03/24 11:29:51;;;;;;;19.32;11.08;;;;;;;10.21;84.43;98795.98;1724446;83;21082;-78
2024/03/24 11:32:50;;;;;;;19.73;11.12;;;;;;;10.21;84.44;98785.03;1724754;83;21579;-75
2024/03/24 11:35:22;;;;;;;17.15;11.00;;;;;;;10.24;84.58;98792.78;1724318;83;21046;-78